Terminal Aerodrome Forecast
Issued by NWS

Home | Current Version | Previous Version | Text Only | Print | Product List | Glossary On
Versions: 1 2 3 4 5 6 7 8 9 10 11 12 13 14 15
000
FTUS45 KABQ 290527
TAFSAF
TAF
KSAF 290527Z 2906/3006 36010KT P6SM VCSH BKN019 OVC035
      TEMPO 2906/2908 SCT019
     FM291100 33012G19KT P6SM BKN050 BKN080
     FM291500 33015G23KT P6SM SCT050 BKN100
     FM300100 36010KT P6SM SCT060=

USA.gov is the U.S. government's official web portal to all federal, state and local government web resources and services.